Latest Weather Observations for Archerfield

IDQ60901

Issued at 7:51 am EST Wednesday 23 October 2019 (issued every 10 minutes, with the page automatically refreshed every 10 minutes)

About weather observations | Map of Brisbane area stations | Latest observations for Brisbane area | Other Formats
Station Details ID: 040211 Name: ARCHERFIELD AIRPORT Lat: -27.57 Lon: 153.01 Height: 12.5 m
Data from the previous 72 hours. | See also: Recent months at Archerfield
Date/Time
EST
Temp
°C
App
Temp
°C
Dew
Point
°C
Rel
Hum
%
Delta-T
°C
Wind Press
QNH
hPa
Press
MSL
hPa
Rain since
9am
mm
Dir  Spd
km/h
Gust
km/h
Spd
kts
Gust
kts
23/07:30am 20.4 20.1 14.3 68 3.5 S 9 13 5 7 1024.4 1024.3 0.0
23/07:00am 18.4 17.5 13.7 74 2.7 S 11 15 6 8 1024.3 1024.2 0.0
23/06:30am 17.4 17.2 13.7 79 2.1 SSW 7 11 4 6 1024.2 1024.1 0.0
23/06:00am 15.7 15.7 13.5 87 1.2 SE 6 6 3 3 1024.1 1024.0 0.0
23/05:30am 14.9 15.4 12.8 87 1.2 S 2 7 1 4 1023.9 1023.8 0.0
23/05:00am 14.4 15.2 12.6 89 1.0 CALM 0 0 0 0 1023.7 1023.6 0.0
23/04:30am 14.2 14.8 11.9 86 1.2 CALM 0 0 0 0 1023.5 1023.4 0.0
23/04:00am 14.8 15.6 12.5 86 1.3 CALM 0 2 0 1 1023.2 1023.1 0.0
23/03:30am 15.7 16.0 13.4 86 1.3 S 4 9 2 5 1023.0 1022.9 0.0
23/03:00am 15.8 15.2 13.5 86 1.3 S 9 11 5 6 1022.8 1022.7 0.0
23/02:30am 14.7 14.3 12.4 86 1.3 SW 6 7 3 4 1022.9 1022.8 0.0
23/02:00am 15.3 15.5 13.0 86 1.3 S 4 7 2 4 1023.0 1022.9 0.0
23/01:30am 14.5 15.1 11.8 84 1.5 CALM 0 0 0 0 1023.2 1023.1 0.0
23/01:00am 15.8 15.9 12.7 82 1.7 S 4 9 2 5 1023.5 1023.4 0.0
23/12:30am 15.8 15.3 12.7 82 1.7 S 7 11 4 6 1023.7 1023.6 0.0
23/12:00am 16.6 15.9 13.1 80 1.9 SSE 9 15 5 8 1024.2 1024.1 0.0
 
Date/Time
EST
Temp
°C
App
Temp
°C
Dew
Point
°C
Rel
Hum
%
Delta-T
°C
Wind Press
QNH
hPa
Press
MSL
hPa
Rain since
9am
mm
Dir  Spd
km/h
Gust
km/h
Spd
kts
Gust
kts
22/11:30pm 16.7 16.4 13.2 80 2.0 S 7 9 4 5 1024.3 1024.2 0.0
22/11:00pm 15.9 15.4 12.6 81 1.8 SSW 7 9 4 5 1024.6 1024.5 0.0
22/10:30pm 17.0 16.8 12.9 77 2.3 SE 6 7 3 4 1024.6 1024.5 0.0
22/10:00pm 17.4 18.3 12.9 75 2.5 CALM 0 0 0 0 1024.7 1024.6 0.0
22/09:30pm 17.8 17.6 12.9 73 2.7 E 6 9 3 5 1024.7 1024.6 0.0
22/09:00pm 18.4 18.1 13.3 72 2.9 ENE 7 9 4 5 1024.6 1024.5 0.0
22/08:30pm 18.4 17.9 12.8 70 3.1 E 7 9 4 5 1024.6 1024.5 0.0
22/08:00pm 18.8 18.3 12.8 68 3.4 E 7 11 4 6 1024.5 1024.4 0.0
22/07:30pm 18.2 17.4 11.7 66 3.6 NE 7 11 4 6 1024.2 1024.1 0.0
22/07:00pm 19.7 18.1 12.7 64 3.9 ENE 13 19 7 10 1024.0 1023.9 0.0
22/06:30pm 20.1 17.7 12.8 63 4.1 ENE 17 22 9 12 1023.8 1023.7 0.0
22/06:00pm 20.8 17.9 13.0 61 4.4 E 20 28 11 15 1023.4 1023.3 0.0
22/05:30pm 21.7 18.2 12.3 55 5.3 E 22 28 12 15 1022.8 1022.7 0.0
22/05:00pm 22.0 18.6 11.4 51 5.9 E 20 26 11 14 1022.5 1022.4 0.0
22/04:30pm 23.5 19.8 11.5 47 6.7 E 22 32 12 17 1022.0 1021.9 0.0
22/04:00pm 23.2 19.9 11.6 48 6.5 ENE 20 28 11 15 1021.8 1021.7 0.0
22/03:30pm 23.9 20.0 12.2 48 6.7 E 24 30 13 16 1021.8 1021.7 0.0
22/03:00pm 25.0 21.5 12.2 44 7.3 ENE 22 30 12 16 1021.5 1021.4 0.0
22/02:30pm 25.2 22.7 14.0 49 6.6 ENE 20 28 11 15 1021.7 1021.6 0.0
22/02:00pm 25.1 22.7 12.7 46 7.1 ENE 17 24 9 13 1021.9 1021.8 0.0
22/01:30pm 25.2 21.4 12.4 45 7.4 ENE 24 32 13 17 1022.3 1022.2 0.0
22/01:00pm 24.0 20.4 12.0 47 6.8 ENE 22 32 12 17 1022.6 1022.5 0.0
22/12:30pm 25.5 22.6 12.4 44 7.5 E 19 24 10 13 1023.0 1022.9 0.0
22/12:00pm 24.6 21.3 10.8 42 7.7 ESE 19 24 10 13 1023.3 1023.2 0.0
22/11:30am 24.1 21.8 11.8 46 7.0 SE 15 28 8 15 1023.6 1023.5 0.0
22/11:00am 23.3 21.8 10.7 45 6.9 SSE 9 17 5 9 1023.9 1023.8 0.0
22/10:30am 23.9 21.9 11.6 46 6.9 S 13 20 7 11 1024.2 1024.1 0.0
22/10:00am 23.5 22.1 12.2 49 6.4 ESE 11 17 6 9 1024.7 1024.6 0.0
22/09:30am 23.3 22.3 12.3 50 6.3 NNE 9 17 5 9 1025.0 1024.9 0.0
22/09:00am 22.1 21.2 11.5 51 5.9 WSW 7 15 4 8 1025.3 1025.2 0.0
22/08:30am 21.2 20.1 12.1 56 5.1 SSW 9 13 5 7 1025.4 1025.3 0.0
22/08:00am 19.8 19.2 11.8 60 4.4 SSW 6 9 3 5 1025.5 1025.4 0.0
22/07:30am 18.8 16.8 11.6 63 4.0 SSW 13 17 7 9 1025.2 1025.1 0.0
22/07:00am 18.3 16.5 12.1 67 3.4 SSW 13 17 7 9 1024.9 1024.8 0.0
22/06:30am 16.4 16.1 11.6 73 2.6 WSW 4 7 2 4 1024.8 1024.7 0.0
22/06:00am 15.2 14.0 11.6 79 1.9 SW 9 11 5 6 1024.6 1024.5 0.0
22/05:30am 14.6 13.2 11.0 79 1.9 SSW 9 11 5 6 1024.3 1024.2 0.0
22/05:00am 14.0 13.1 11.2 83 1.5 SSW 7 9 4 5 1024.2 1024.1 0.0
22/04:30am 14.2 12.8 11.0 81 1.7 SSW 9 11 5 6 1023.9 1023.8 0.0
22/04:00am 14.0 12.9 10.6 80 1.8 SW 7 9 4 5 1023.8 1023.7 0.0
22/03:30am 15.2 14.2 11.0 76 2.2 S 7 9 4 5 1023.8 1023.7 0.0
22/03:00am 15.2 14.5 11.4 78 2.0 S 6 7 3 4 1023.7 1023.6 0.0
22/02:30am 14.6 15.0 11.4 81 1.7 CALM 0 0 0 0 1023.9 1023.8 0.0
22/02:00am 14.2 14.5 11.0 81 1.7 CALM 0 0 0 0 1024.0 1023.9 0.0
22/01:30am 13.9 14.3 11.1 83 1.5 CALM 0 6 0 3 1024.2 1024.1 0.0
22/01:00am 14.9 13.3 11.5 80 1.8 S 11 13 6 7 1024.4 1024.3 0.0
22/12:30am 15.2 15.5 11.0 76 2.2 CALM 0 0 0 0 1024.8 1024.7 0.0
22/12:00am 15.7 16.1 11.1 74 2.4 CALM 0 0 0 0 1025.1 1025.0 0.0
 
Date/Time
EST
Temp
°C
App
Temp
°C
Dew
Point
°C
Rel
Hum
%
Delta-T
°C
Wind Press
QNH
hPa
Press
MSL
hPa
Rain since
9am
mm
Dir  Spd
km/h
Gust
km/h
Spd
kts
Gust
kts
21/11:30pm 15.7 16.2 11.7 77 2.2 CALM 0 0 0 0 1025.3 1025.2 0.0
21/11:00pm 15.1 15.3 10.5 74 2.4 CALM 0 0 0 0 1025.4 1025.3 0.0
21/10:30pm 16.6 15.9 11.5 72 2.8 SW 6 7 3 4 1025.4 1025.3 0.0
21/10:00pm 17.1 17.5 11.4 69 3.1 CALM 0 0 0 0 1025.5 1025.4 0.0
21/09:30pm 17.2 17.4 10.6 65 3.5 CALM 0 0 0 0 1025.4 1025.3 0.0
21/09:00pm 18.2 16.9 11.3 64 3.7 ESE 9 11 5 6 1025.4 1025.3 0.0
21/08:30pm 18.3 16.5 10.9 62 4.0 ENE 11 15 6 8 1025.3 1025.2 0.0
21/08:00pm 19.1 16.9 10.9 59 4.4 E 13 19 7 10 1025.2 1025.1 0.0
21/07:30pm 19.5 16.9 10.8 57 4.7 E 15 26 8 14 1025.0 1024.9 0.0
21/07:00pm 19.7 16.7 10.7 56 4.9 ESE 17 24 9 13 1024.8 1024.7 0.0
21/06:30pm 20.1 16.8 10.8 55 5.1 ESE 19 28 10 15 1024.6 1024.5 0.0
21/06:00pm 20.4 16.0 10.5 53 5.3 ESE 24 35 13 19 1024.1 1024.0 0.0
21/05:30pm 21.1 16.5 10.9 52 5.6 E 26 35 14 19 1023.6 1023.5 0.0
21/05:00pm 21.9 17.1 10.4 48 6.3 E 26 39 14 21 1023.1 1023.0 0.0
21/04:30pm 22.6 17.7 10.1 45 6.8 ESE 26 35 14 19 1022.8 1022.7 0.0
21/04:00pm 23.4 17.4 8.7 39 7.8 ESE 30 41 16 22 1022.6 1022.5 0.0
21/03:30pm 23.9 18.1 7.9 36 8.5 ESE 28 37 15 20 1022.4 1022.3 0.0
21/03:00pm 24.2 19.0 7.4 34 8.8 ESE 24 37 13 20 1022.4 1022.3 0.0
21/02:30pm 24.4 19.0 8.0 35 8.7 ESE 26 41 14 22 1022.5 1022.4 0.0
21/02:00pm 24.6 19.1 7.7 34 8.9 ESE 26 35 14 19 1022.6 1022.5 0.0
21/01:30pm 24.9 20.1 7.5 33 9.2 ESE 22 32 12 17 1022.9 1022.8 0.0
21/01:00pm 25.1 20.6 8.6 35 8.8 E 22 35 12 19 1023.1 1023.0 0.0
21/12:30pm 24.6 20.2 7.3 33 9.1 ESE 20 35 11 19 1023.3 1023.2 0.0
21/12:00pm 24.6 20.0 8.1 35 8.7 SE 22 33 12 18 1023.7 1023.6 0.0
21/11:30am 23.4 18.3 7.5 36 8.3 ESE 24 35 13 19 1024.0 1023.9 0.0
21/11:00am 23.7 18.8 6.9 34 8.7 SE 22 33 12 18 1024.4 1024.3 0.0
21/10:30am 23.5 18.4 7.6 36 8.3 SE 24 37 13 20 1024.7 1024.6 0.0
21/10:00am 24.3 18.9 7.9 35 8.6 SE 26 35 14 19 1024.8 1024.7 0.0
21/09:30am 24.3 19.5 8.7 37 8.4 ESE 24 32 13 17 1024.9 1024.8 0.0
21/09:00am 23.7 18.7 9.7 41 7.6 SE 26 35 14 19 1024.9 1024.8 0.0
21/08:30am 22.9 18.6 10.7 46 6.7 SE 24 35 13 19 1024.9 1024.8 0.0
21/08:00am 21.8 18.6 11.2 51 5.8 SE 19 24 10 13 1024.7 1024.6 0.0
21/07:30am 20.7 19.6 12.1 58 4.8 S 9 13 5 7 1024.7 1024.6 0.0
21/07:00am 18.8 17.3 11.9 64 3.8 S 11 15 6 8 1024.5 1024.4 0.0
21/06:30am 17.5 16.5 12.2 71 2.9 SSW 9 11 5 6 1024.4 1024.3 0.0
21/06:00am 16.6 16.0 12.2 75 2.4 SSW 7 9 4 5 1024.0 1023.9 0.0
21/05:30am 15.9 14.8 12.1 78 2.1 SSW 9 9 5 5 1023.7 1023.6 0.0
21/05:00am 16.0 15.5 12.6 80 1.9 SW 7 9 4 5 1023.3 1023.2 0.0
21/04:30am 16.5 17.4 13.0 80 1.9 CALM 0 0 0 0 1022.8 1022.7 0.0
21/04:00am 15.8 16.6 12.4 80 1.9 CALM 0 0 0 0 1022.6 1022.5 0.0
21/03:30am 16.3 16.0 12.7 79 2.0 SSW 6 7 3 4 1022.3 1022.2 0.0
21/03:00am 16.7 16.3 12.5 76 2.3 SSW 6 7 3 4 1022.3 1022.2 0.0
21/02:30am 17.7 17.4 12.6 72 2.8 S 6 7 3 4 1022.2 1022.1 0.0
21/02:00am 18.1 17.8 12.8 71 3.0 S 6 9 3 5 1022.2 1022.1 0.0
21/01:30am 18.4 17.9 12.6 69 3.2 S 7 11 4 6 1022.2 1022.1 0.0
21/01:00am 18.5 17.6 12.7 69 3.2 SSE 9 13 5 7 1022.4 1022.3 0.0
21/12:30am 18.9 17.8 13.1 69 3.3 SSE 11 15 6 8 1022.5 1022.4 0.0
21/12:00am 19.4 18.0 13.3 68 3.5 SSE 13 20 7 11 1022.6 1022.5 0.0
 
Date/Time
EST
Temp
°C
App
Temp
°C
Dew
Point
°C
Rel
Hum
%
Delta-T
°C
Wind Press
QNH
hPa
Press
MSL
hPa
Rain since
9am
mm
Dir  Spd
km/h
Gust
km/h
Spd
kts
Gust
kts
20/11:30pm 19.5 18.1 13.4 68 3.5 SSE 13 20 7 11 1022.7 1022.6 0.0
20/11:00pm 20.0 17.5 13.5 66 3.7 SSE 19 26 10 14 1022.6 1022.5 0.0
20/10:30pm 20.5 18.1 13.7 65 3.9 SE 19 26 10 14 1022.7 1022.6 0.0
20/10:00pm 20.3 18.3 14.0 67 3.6 SSE 17 24 9 13 1022.5 1022.4 0.0
20/09:30pm 20.3 18.8 14.2 68 3.5 SSE 15 20 8 11 1022.4 1022.3 0.0
20/09:00pm 20.4 18.1 14.1 67 3.6 SE 19 26 10 14 1022.1 1022.0 0.0
20/08:30pm 20.6 19.1 14.3 67 3.7 SE 15 19 8 10 1021.9 1021.8 0.0
20/08:00pm 20.7 18.2 14.1 66 3.8 SE 20 28 11 15 1021.4 1021.3 0.0
20/07:30pm 21.0 17.4 14.2 65 4.0 ESE 26 33 14 18 1020.8 1020.7 0.0
20/07:00pm 20.9 16.9 14.1 65 3.9 SE 28 43 15 23 1020.0 1019.9 0.0
20/06:30pm 21.4 16.3 13.8 62 4.4 ESE 33 46 18 25 1019.1 1019.0 0.0
20/06:00pm 21.4 16.3 13.6 61 4.5 ESE 33 46 18 25 1018.7 1018.6 0.0
20/05:30pm 21.7 15.3 13.3 59 4.8 ESE 39 57 21 31 1018.1 1018.0 0.0
20/05:20pm 22.0 16.4 13.4 58 5.0 ESE 35 54 19 29 1017.9 1017.8 0.0
20/05:00pm 22.3 15.5 13.1 56 5.3 ESE 41 57 22 31 1017.6 1017.5 0.0
20/04:33pm 23.2 16.5 13.4 54 5.7 ESE 41 59 22 32 1017.2 1017.1 0.0
20/04:30pm 22.8 15.6 13.0 54 5.6 ESE 43 59 23 32 1017.0 1016.9 0.0
20/04:00pm 23.7 16.4 12.7 50 6.3 ESE 43 56 23 30 1016.7 1016.6 0.0
20/03:30pm 24.3 17.4 12.9 49 6.6 ESE 41 59 22 32 1016.2 1016.1 0.0
20/03:00pm 25.3 18.6 12.2 44 7.5 ESE 39 57 21 31 1015.9 1015.8 0.0
20/02:58pm 25.4 18.6 11.9 43 7.7 ESE 39 57 21 31 1015.9 1015.8 0.0
20/02:30pm 24.8 17.9 11.7 44 7.4 ESE 39 54 21 29 1015.9 1015.8 0.0
20/02:00pm 26.1 19.4 12.2 42 8.0 ESE 39 54 21 29 1015.8 1015.7 0.0
20/01:40pm 26.4 20.4 12.1 41 8.2 E 35 54 19 29 1015.8 1015.7 0.0
20/01:30pm 26.8 20.9 12.5 41 8.3 ESE 35 50 19 27 1015.8 1015.7 0.0
20/01:00pm 27.4 21.8 13.4 42 8.3 ESE 35 46 19 25 1015.9 1015.8 0.0
20/12:30pm 27.7 24.3 13.6 42 8.4 ESE 24 39 13 21 1016.1 1016.0 0.0
20/12:28pm 27.9 25.1 13.1 40 8.7 SE 20 39 11 21 1016.0 1015.9 0.0
20/12:00pm 28.3 26.5 9.6 31 10.4 WSW 9 17 5 9 1016.3 1016.2 0.0
20/11:30am 27.2 25.3 9.1 32 9.9 SE 9 20 5 11 1016.6 1016.5 0.0
20/11:00am 26.6 25.6 11.1 38 8.8 E 7 19 4 10 1016.9 1016.8 0.0
20/10:30am 25.4 23.7 11.2 41 8.0 SSE 11 20 6 11 1017.3 1017.2 0.0
20/10:00am 24.5 22.9 11.5 44 7.3 SE 11 17 6 9 1017.6 1017.5 0.0
20/09:30am 23.7 22.7 13.3 52 6.0 SSW 11 17 6 9 1017.6 1017.5 0.0
20/09:00am 22.6 23.0 14.7 61 4.7 WNW 6 9 3 5 1017.8 1017.7 4.2
20/08:30am 20.9 20.0 14.8 68 3.6 SW 13 15 7 8 1017.9 1017.8 4.2
20/08:00am 18.5 15.7 15.4 82 1.8 S 24 37 13 20 1018.0 1017.9 4.2

Latest Capital City Observations: Canberra | Sydney | Melbourne | Brisbane | Adelaide | Perth | Hobart | Darwin

Other formats

Comma delimited format used in spreadsheet applications
http://www.bom.gov.au/fwo/IDQ60901/IDQ60901.94575.axf

JavaScript Object Notation format (JSON) in row-major order
http://www.bom.gov.au/fwo/IDQ60901/IDQ60901.94575.json

Data quality

Most of these data are generated automatically and are frequently updated. Quality checks on data are not normally performed. It is possible for incorrect values to appear. Refer to information at About Latest Weather Observations and please check the disclaimer before using these data.